createdAt,value
2023-03-26T00:01:38.545Z,4.15
2023-03-26T00:04:07.361Z,2.92
2023-03-26T00:06:39.467Z,2.75
2023-03-26T00:09:09.660Z,3.40
2023-03-26T00:11:37.559Z,2.03
2023-03-26T00:14:05.849Z,1.92
2023-03-26T00:16:34.419Z,1.50
2023-03-26T00:19:02.167Z,3.05
2023-03-26T00:21:31.427Z,3.55
2023-03-26T00:24:04.528Z,4.97
2023-03-26T00:26:34.201Z,3.17
2023-03-26T00:29:03.707Z,3.63
2023-03-26T00:31:31.756Z,6.28
2023-03-26T00:33:59.636Z,3.08
2023-03-26T00:36:27.324Z,2.65
2023-03-26T00:38:55.418Z,4.85
2023-03-26T00:41:26.356Z,7.03
2023-03-26T00:43:56.691Z,4.82
2023-03-26T00:46:32.067Z,4.80
2023-03-26T00:49:00.756Z,3.65
2023-03-26T00:51:28.893Z,3.50
2023-03-26T00:53:56.698Z,3.00
2023-03-26T00:56:24.337Z,3.33
2023-03-26T00:58:51.774Z,3.33
2023-03-26T01:01:28.645Z,4.00
2023-03-26T01:04:08.819Z,6.15
2023-03-26T01:06:42.560Z,3.42
2023-03-26T01:09:21.207Z,6.85
2023-03-26T01:11:49.779Z,3.92
2023-03-26T01:14:21.386Z,3.67
2023-03-26T01:17:07.127Z,3.78
2023-03-26T01:19:56.307Z,4.90
2023-03-26T01:22:26.474Z,5.65
2023-03-26T01:24:56.764Z,5.45
2023-03-26T01:27:52.311Z,6.10
2023-03-26T01:30:41.669Z,4.35
2023-03-26T01:33:34.177Z,4.05
2023-03-26T01:36:13.439Z,3.78
2023-03-26T01:39:02.645Z,3.50
2023-03-26T01:41:36.821Z,3.28
2023-03-26T01:44:06.757Z,2.78
2023-03-26T01:46:36.471Z,1.67
2023-03-26T01:49:06.594Z,1.35
2023-03-26T01:51:36.193Z,1.73
2023-03-26T01:54:06.366Z,2.25
2023-03-26T01:57:10.475Z,2.97
2023-03-26T02:00:21.387Z,3.63
2023-03-26T02:02:59.444Z,1.42
2023-03-26T02:05:33.876Z,1.45
2023-03-26T02:12:16.350Z,1.80
2023-03-26T02:14:44.494Z,1.77
2023-03-26T02:17:12.496Z,1.90
2023-03-26T02:19:42.979Z,1.67
2023-03-26T02:22:11.440Z,2.97
2023-03-26T02:24:39.683Z,1.30
2023-03-26T02:27:12.410Z,1.63
2023-03-26T02:29:41.514Z,1.98
2023-03-26T02:32:14.728Z,3.03
2023-03-26T02:35:07.404Z,1.98
2023-03-26T02:37:50.989Z,1.45
2023-03-26T02:40:23.869Z,2.67
2023-03-26T02:45:19.655Z,2.45
2023-03-26T02:48:22.497Z,1.58
2023-03-26T02:51:11.192Z,0.95
2023-03-26T02:53:58.592Z,1.80
2023-03-26T02:56:49.371Z,1.15
2023-03-26T02:59:36.982Z,1.60
2023-03-26T03:02:24.515Z,5.55
2023-03-26T03:05:01.602Z,1.25
2023-03-26T03:07:33.252Z,2.63
2023-03-26T03:10:02.780Z,1.45
2023-03-26T03:12:53.964Z,2.53
2023-03-26T03:15:21.573Z,1.45
2023-03-26T03:17:48.898Z,1.77
2023-03-26T03:20:16.879Z,2.22
2023-03-26T03:22:44.475Z,2.65
2023-03-26T03:25:14.552Z,3.60
2023-03-26T03:27:42.981Z,4.40
2023-03-26T03:30:14.025Z,1.98
2023-03-26T03:33:06.260Z,1.27
2023-03-26T03:35:35.342Z,1.50
2023-03-26T03:38:02.724Z,1.20
2023-03-26T03:40:36.620Z,1.98
2023-03-26T03:43:03.989Z,1.65
2023-03-26T03:45:40.065Z,2.38
2023-03-26T03:48:12.435Z,1.30
2023-03-26T03:50:43.409Z,1.02
2023-03-26T03:53:49.896Z,1.52
2023-03-26T03:56:27.682Z,1.73
2023-03-26T03:59:13.616Z,2.15
2023-03-26T04:01:46.891Z,2.50
2023-03-26T04:04:40.843Z,1.17
2023-03-26T04:07:12.137Z,1.20
2023-03-26T04:10:00.513Z,2.05
2023-03-26T04:12:33.182Z,1.10
2023-03-26T04:15:08.250Z,1.48
2023-03-26T04:17:43.151Z,1.30
2023-03-26T04:20:15.932Z,3.08
2023-03-26T04:22:46.849Z,1.42
2023-03-26T04:25:16.502Z,1.40
2023-03-26T04:27:50.125Z,1.05
2023-03-26T04:30:38.424Z,2.05
2023-03-26T04:33:25.866Z,2.65
2023-03-26T04:36:02.646Z,2.55
2023-03-26T04:38:42.251Z,1.90
2023-03-26T04:41:13.405Z,1.95
2023-03-26T04:43:56.903Z,2.88
2023-03-26T04:46:43.890Z,1.65
2023-03-26T04:49:31.525Z,4.13
2023-03-26T04:51:59.380Z,1.80
2023-03-26T04:54:54.498Z,1.70
2023-03-26T04:57:39.691Z,1.52
2023-03-26T05:00:20.051Z,2.10
2023-03-26T05:02:56.279Z,1.13
2023-03-26T05:07:52.248Z,1.10
2023-03-26T05:10:21.654Z,1.20
2023-03-26T05:12:53.341Z,1.40
2023-03-26T05:15:25.488Z,1.45
2023-03-26T05:18:32.448Z,1.67
2023-03-26T05:21:01.395Z,1.27
2023-03-26T05:23:30.236Z,1.52
2023-03-26T05:26:11.107Z,3.70
2023-03-26T05:28:38.511Z,1.10
2023-03-26T05:31:21.405Z,2.53
2023-03-26T05:34:16.026Z,1.10
2023-03-26T05:36:56.437Z,3.05
2023-03-26T05:39:59.681Z,2.13
2023-03-26T05:43:04.726Z,4.25
2023-03-26T05:45:34.784Z,0.50
2023-03-26T05:48:13.666Z,1.33
2023-03-26T05:50:41.086Z,1.38
2023-03-26T05:53:08.433Z,2.90
2023-03-26T05:55:58.293Z,1.67
2023-03-26T05:58:52.135Z,0.95
2023-03-26T06:01:58.013Z,5.72
2023-03-26T06:04:46.465Z,3.22
2023-03-26T06:10:38.652Z,3.90
2023-03-26T06:13:06.553Z,1.75
2023-03-26T06:15:37.111Z,3.63
2023-03-26T06:18:16.175Z,5.15
2023-03-26T06:20:56.501Z,4.43
2023-03-26T06:23:43.225Z,4.75
2023-03-26T06:26:40.882Z,3.03
2023-03-26T06:29:27.184Z,2.78
2023-03-26T06:32:20.606Z,3.50
2023-03-26T06:35:09.068Z,3.67
2023-03-26T06:37:37.004Z,1.98
2023-03-26T06:40:29.444Z,1.40
2023-03-26T06:43:11.109Z,2.60
2023-03-26T06:46:08.083Z,3.05
2023-03-26T06:48:38.678Z,5.00
2023-03-26T06:51:24.385Z,3.33
2023-03-26T06:54:09.942Z,3.72
2023-03-26T06:59:49.268Z,5.55
2023-03-26T07:02:36.639Z,6.25
2023-03-26T07:05:48.135Z,5.05
2023-03-26T07:08:36.325Z,5.10
2023-03-26T07:11:25.577Z,3.72
2023-03-26T07:13:53.070Z,3.75
2023-03-26T07:16:29.204Z,3.85
2023-03-26T07:19:16.997Z,4.88
2023-03-26T07:22:16.147Z,4.68
2023-03-26T07:25:18.207Z,4.70
2023-03-26T07:28:43.427Z,4.95
2023-03-26T07:31:54.124Z,4.38
2023-03-26T07:34:45.951Z,4.38
2023-03-26T07:37:44.567Z,5.40
2023-03-26T07:40:57.558Z,3.88
2023-03-26T07:44:08.153Z,4.95
2023-03-26T07:46:53.474Z,3.60
2023-03-26T07:49:59.609Z,4.38
2023-03-26T07:53:02.731Z,6.32
2023-03-26T07:56:17.453Z,3.25
2023-03-26T07:59:33.194Z,4.88
2023-03-26T08:03:05.756Z,3.45
2023-03-26T08:06:15.208Z,2.53
2023-03-26T08:09:09.106Z,3.88
2023-03-26T08:12:24.015Z,4.22
2023-03-26T08:15:21.575Z,3.95
2023-03-26T08:18:06.498Z,5.13
2023-03-26T08:20:49.601Z,3.08
2023-03-26T08:23:26.136Z,2.70
2023-03-26T08:26:16.568Z,7.03
2023-03-26T08:28:55.473Z,4.13
2023-03-26T08:31:41.610Z,6.93
2023-03-26T08:34:12.970Z,5.55
2023-03-26T08:36:44.040Z,7.38
2023-03-26T08:39:11.833Z,7.05
2023-03-26T08:41:57.859Z,6.35
2023-03-26T08:45:02.570Z,5.22
2023-03-26T08:47:30.227Z,4.03
2023-03-26T08:50:24.705Z,7.55
2023-03-26T08:53:13.346Z,7.93
2023-03-26T08:56:15.769Z,5.72
2023-03-26T08:59:11.150Z,4.15
2023-03-26T09:01:47.265Z,4.07
2023-03-26T09:04:17.477Z,7.70
2023-03-26T09:07:22.511Z,7.45
2023-03-26T09:10:18.686Z,4.72
2023-03-26T09:13:01.429Z,5.80
2023-03-26T09:15:37.916Z,9.07
2023-03-26T09:18:24.020Z,4.70
2023-03-26T09:20:51.255Z,4.25
2023-03-26T09:23:52.839Z,4.93
2023-03-26T09:26:59.076Z,5.38
2023-03-26T09:29:45.532Z,5.07
2023-03-26T09:32:31.809Z,5.32
2023-03-26T09:35:13.879Z,3.70
2023-03-26T09:38:03.587Z,2.70
2023-03-26T09:40:55.511Z,3.40
2023-03-26T09:43:51.544Z,1.60
2023-03-26T09:46:31.042Z,4.10
2023-03-26T09:49:22.386Z,4.25
2023-03-26T09:52:23.117Z,6.28
2023-03-26T09:55:33.887Z,5.40
2023-03-26T09:58:20.075Z,4.85
2023-03-26T10:01:07.060Z,2.95
2023-03-26T10:04:01.664Z,4.07
2023-03-26T10:06:41.799Z,3.83
2023-03-26T10:09:26.652Z,4.43
2023-03-26T10:12:13.127Z,2.67
2023-03-26T10:15:02.972Z,4.15
2023-03-26T10:17:59.245Z,3.95
2023-03-26T10:20:41.000Z,3.40
2023-03-26T10:28:46.686Z,2.28
2023-03-26T10:31:25.606Z,1.73
2023-03-26T10:34:28.421Z,3.20
2023-03-26T10:37:24.954Z,3.33
2023-03-26T10:40:06.132Z,2.28
2023-03-26T10:42:41.996Z,2.40
2023-03-26T10:45:50.441Z,17.63
2023-03-26T10:48:51.706Z,2.83
2023-03-26T10:51:45.510Z,3.38
2023-03-26T10:54:35.776Z,2.67
2023-03-26T10:57:28.960Z,4.93
2023-03-26T11:00:01.395Z,2.72
2023-03-26T11:02:31.279Z,3.25
2023-03-26T11:05:16.898Z,3.28
2023-03-26T11:07:58.847Z,22.48
2023-03-26T11:10:28.939Z,10.18
2023-03-26T11:13:14.486Z,3.05
2023-03-26T11:15:54.277Z,2.22
2023-03-26T11:18:21.583Z,2.20
2023-03-26T11:21:19.833Z,3.47
2023-03-26T11:24:17.170Z,2.92
2023-03-26T11:27:19.999Z,3.25
2023-03-26T11:30:21.056Z,1.63
2023-03-26T11:32:56.054Z,3.10
2023-03-26T11:36:14.380Z,3.70
2023-03-26T11:38:47.185Z,3.00
2023-03-26T11:41:27.470Z,2.67
2023-03-26T11:45:01.353Z,2.80
2023-03-26T11:47:45.114Z,4.85
2023-03-26T11:50:42.429Z,2.20
2023-03-26T11:53:34.699Z,2.20
2023-03-26T11:56:15.571Z,2.33
2023-03-26T11:58:55.513Z,4.20
2023-03-26T12:01:30.538Z,3.83
2023-03-26T12:07:32.140Z,4.05
2023-03-26T12:10:18.010Z,2.22
2023-03-26T12:12:48.124Z,4.32
2023-03-26T12:15:19.144Z,2.97
2023-03-26T12:17:49.323Z,3.42
2023-03-26T12:20:37.071Z,3.65
2023-03-26T12:23:06.772Z,4.50
2023-03-26T12:25:39.265Z,3.63
2023-03-26T12:28:43.027Z,3.83
2023-03-26T12:31:30.599Z,3.83
2023-03-26T12:34:24.023Z,4.40
2023-03-26T12:36:56.858Z,4.25
2023-03-26T12:40:10.313Z,2.47
2023-03-26T12:44:50.057Z,4.28
2023-03-26T12:45:40.996Z,5.90
2023-03-26T12:48:43.908Z,2.92
2023-03-26T12:51:21.664Z,6.80
2023-03-26T12:54:02.106Z,5.35
2023-03-26T12:56:38.737Z,3.17
2023-03-26T12:59:10.372Z,4.68
2023-03-26T13:01:55.703Z,3.80
2023-03-26T13:04:23.504Z,4.70
2023-03-26T13:07:16.569Z,3.25
2023-03-26T13:13:28.833Z,4.75
2023-03-26T13:16:25.037Z,4.55
2023-03-26T13:19:20.166Z,6.32
2023-03-26T13:22:15.466Z,4.68
2023-03-26T13:24:54.105Z,4.13
2023-03-26T13:27:43.668Z,4.45
2023-03-26T13:30:14.392Z,4.80
2023-03-26T13:33:03.710Z,3.00
2023-03-26T13:35:31.403Z,4.05
2023-03-26T13:38:31.014Z,2.80
2023-03-26T13:41:10.674Z,4.90
2023-03-26T13:43:41.517Z,3.55
2023-03-26T13:46:26.624Z,4.27
2023-03-26T13:49:46.593Z,3.90
2023-03-26T13:52:25.412Z,4.68
2023-03-26T13:55:31.239Z,3.88
2023-03-26T13:58:04.096Z,2.85
2023-03-26T14:01:18.785Z,3.50
2023-03-26T14:04:04.973Z,3.13
2023-03-26T14:07:06.504Z,5.72
2023-03-26T14:09:45.080Z,3.55
2023-03-26T14:13:05.961Z,2.47
2023-03-26T14:15:44.876Z,2.75
2023-03-26T14:19:08.865Z,6.25
2023-03-26T14:21:51.975Z,3.17
2023-03-26T14:25:06.697Z,5.25
2023-03-26T14:27:57.272Z,3.67
2023-03-26T14:30:43.931Z,5.15
2023-03-26T14:34:02.031Z,4.75
2023-03-26T14:37:14.068Z,3.30
2023-03-26T14:43:01.910Z,4.50
2023-03-26T14:45:58.586Z,2.03
2023-03-26T14:48:51.551Z,4.13
2023-03-26T14:55:59.512Z,2.95
2023-03-26T14:59:32.376Z,4.25
2023-03-26T15:03:08.209Z,3.83
2023-03-26T15:05:59.868Z,2.78
2023-03-26T15:08:47.195Z,3.17
2023-03-26T15:16:01.351Z,2.67
2023-03-26T15:19:06.284Z,2.65
2023-03-26T15:22:13.335Z,3.45
2023-03-26T15:25:19.157Z,3.40
2023-03-26T15:28:38.064Z,3.42
2023-03-26T15:31:32.470Z,2.80
2023-03-26T15:34:50.933Z,6.07
2023-03-26T15:37:53.375Z,4.32
2023-03-26T15:40:38.553Z,2.67
2023-03-26T15:43:20.216Z,3.67
2023-03-26T15:46:10.414Z,6.00
2023-03-26T15:49:19.285Z,2.58
2023-03-26T15:51:56.899Z,2.30
2023-03-26T15:55:14.534Z,2.28
2023-03-26T15:58:19.096Z,3.97
2023-03-26T16:01:21.498Z,3.83
2023-03-26T16:04:25.540Z,3.20
2023-03-26T16:07:26.712Z,4.90
2023-03-26T16:10:41.794Z,3.33
2023-03-26T16:13:28.527Z,6.18
2023-03-26T16:15:58.783Z,14.43
2023-03-26T16:18:30.465Z,20.98
2023-03-26T16:21:40.378Z,26.02
2023-03-26T16:24:23.611Z,31.02
2023-03-26T16:27:08.426Z,28.60
2023-03-26T16:30:19.466Z,19.67
2023-03-26T16:33:20.479Z,9.13
2023-03-26T16:36:04.994Z,8.00
2023-03-26T16:39:01.470Z,6.00
2023-03-26T16:41:50.911Z,3.17
2023-03-26T16:44:34.507Z,4.30
2023-03-26T16:47:18.108Z,1.33
2023-03-26T16:50:08.967Z,4.00
2023-03-26T16:52:38.230Z,2.88
2023-03-26T16:55:28.241Z,5.40
2023-03-26T16:58:06.339Z,5.57
2023-03-26T17:00:44.125Z,4.13
2023-03-26T17:03:17.661Z,5.35
2023-03-26T17:05:58.040Z,6.28
2023-03-26T17:08:48.463Z,5.43
2023-03-26T17:11:53.667Z,3.78
2023-03-26T17:14:42.744Z,3.03
2023-03-26T17:17:37.439Z,2.58
2023-03-26T17:20:34.264Z,2.25
2023-03-26T17:23:17.822Z,5.45
2023-03-26T17:26:22.358Z,2.90
2023-03-26T17:29:23.304Z,3.63
2023-03-26T17:32:12.768Z,3.25
2023-03-26T17:34:50.267Z,3.80
2023-03-26T17:37:24.529Z,4.93
2023-03-26T17:40:02.045Z,5.05
2023-03-26T17:42:36.177Z,2.78
2023-03-26T17:45:21.011Z,3.17
2023-03-26T17:47:53.602Z,5.18
2023-03-26T17:50:27.325Z,3.67
2023-03-26T17:53:07.420Z,3.00
2023-03-26T17:55:39.189Z,3.38
2023-03-26T18:00:44.669Z,3.65
2023-03-26T18:03:23.043Z,3.35
2023-03-26T18:05:57.810Z,3.78
2023-03-26T18:08:48.348Z,3.00
2023-03-26T18:11:52.670Z,2.92
2023-03-26T18:15:24.522Z,2.75
2023-03-26T18:18:21.508Z,2.75
2023-03-26T18:20:52.461Z,3.03
2023-03-26T18:23:35.981Z,3.30
2023-03-26T18:26:33.615Z,3.28
2023-03-26T18:29:24.466Z,2.42
2023-03-26T18:32:18.182Z,2.37
2023-03-26T18:35:03.487Z,1.35
2023-03-26T18:37:41.402Z,2.25
2023-03-26T18:40:16.299Z,4.07
2023-03-26T18:42:50.576Z,1.50
2023-03-26T18:45:38.551Z,2.40
2023-03-26T18:48:11.601Z,3.83
2023-03-26T18:51:06.285Z,3.28
2023-03-26T18:53:50.578Z,2.78
2023-03-26T18:56:28.588Z,2.88
2023-03-26T18:58:59.924Z,3.28
2023-03-26T19:01:33.384Z,3.90
2023-03-26T19:04:07.993Z,2.88
2023-03-26T19:06:42.112Z,0.65
2023-03-26T19:09:28.078Z,0.50
2023-03-26T19:12:15.517Z,0.35
2023-03-26T19:14:59.126Z,0.30
2023-03-26T19:17:32.572Z,2.42
2023-03-26T19:20:01.981Z,0.25
2023-03-26T19:22:32.114Z,0.63
2023-03-26T19:25:04.303Z,0.55
2023-03-26T19:27:33.066Z,0.60
2023-03-26T19:30:04.406Z,2.60
2023-03-26T19:32:33.608Z,1.65
2023-03-26T19:35:05.206Z,0.68
2023-03-26T19:37:33.440Z,0.90
2023-03-26T19:40:13.395Z,1.13
2023-03-26T19:43:11.806Z,0.70
2023-03-26T19:48:45.630Z,0.47
2023-03-26T19:51:18.298Z,0.28
2023-03-26T19:51:27.552Z,1.50
2023-03-26T19:54:01.454Z,0.93
2023-03-26T19:56:30.146Z,0.25
2023-03-26T19:58:59.545Z,1.02
2023-03-26T20:01:30.404Z,0.75
2023-03-26T20:04:07.063Z,1.75
2023-03-26T20:06:43.295Z,0.85
2023-03-26T20:09:16.946Z,0.20
2023-03-26T20:11:47.225Z,0.25
2023-03-26T20:14:18.598Z,0.40
2023-03-26T20:16:46.922Z,0.73
2023-03-26T20:19:15.796Z,1.45
2023-03-26T20:21:45.095Z,0.20
2023-03-26T20:24:16.030Z,1.45
2023-03-26T20:26:45.614Z,0.63
2023-03-26T20:29:15.164Z,0.65
2023-03-26T20:31:44.415Z,1.27
2023-03-26T20:34:23.738Z,1.88
2023-03-26T20:37:01.560Z,1.77
2023-03-26T20:39:29.519Z,0.80
2023-03-26T20:41:57.609Z,1.52
2023-03-26T20:44:27.020Z,0.75
2023-03-26T20:47:17.556Z,2.63
2023-03-26T20:49:45.576Z,3.72
2023-03-26T20:52:14.233Z,0.82
2023-03-26T20:54:42.027Z,2.90
2023-03-26T20:57:15.785Z,1.55
2023-03-26T20:59:43.583Z,2.75
2023-03-26T21:02:12.148Z,1.45
2023-03-26T21:04:39.546Z,0.70
2023-03-26T21:07:17.829Z,0.77
2023-03-26T21:09:47.566Z,0.85
2023-03-26T21:12:45.216Z,1.25
2023-03-26T21:15:22.522Z,0.77
2023-03-26T21:17:52.336Z,0.70
2023-03-26T21:20:20.708Z,0.50
2023-03-26T21:23:06.898Z,1.55
2023-03-26T21:25:56.512Z,1.48
2023-03-26T21:28:45.649Z,1.77
2023-03-26T21:31:20.349Z,1.60
2023-03-26T21:33:49.643Z,0.90
2023-03-26T21:36:20.146Z,0.75
2023-03-26T21:38:47.872Z,2.42
2023-03-26T21:41:42.620Z,3.90
2023-03-26T21:44:10.005Z,1.70
2023-03-26T21:46:37.801Z,2.15
2023-03-26T21:49:05.218Z,0.80
2023-03-26T21:51:34.109Z,2.90
2023-03-26T21:54:01.736Z,2.03
2023-03-26T21:56:50.637Z,1.83
2023-03-26T21:59:35.115Z,1.15
2023-03-26T22:02:23.267Z,3.33
2023-03-26T22:04:59.375Z,1.50
2023-03-26T22:07:37.694Z,1.38
2023-03-26T22:10:05.646Z,2.28
2023-03-26T22:12:32.788Z,1.17
2023-03-26T22:15:02.140Z,1.33
2023-03-26T22:17:29.425Z,2.00
2023-03-26T22:19:56.983Z,1.83
2023-03-26T22:22:26.490Z,1.20
2023-03-26T22:24:53.895Z,0.82
2023-03-26T22:27:21.045Z,1.10
2023-03-26T22:29:48.397Z,1.45
2023-03-26T22:32:15.711Z,2.30
2023-03-26T22:34:46.398Z,2.78
2023-03-26T22:37:13.863Z,2.27
2023-03-26T22:39:41.026Z,4.22
2023-03-26T22:42:08.194Z,1.92
2023-03-26T22:44:35.832Z,0.90
2023-03-26T22:47:03.107Z,0.60
2023-03-26T22:49:31.536Z,1.02
2023-03-26T22:51:58.782Z,0.75
2023-03-26T22:54:27.363Z,0.95
2023-03-26T22:56:55.574Z,1.90
2023-03-26T22:59:22.872Z,0.90
2023-03-26T23:01:50.616Z,0.77
2023-03-26T23:04:30.567Z,0.55
2023-03-26T23:06:58.181Z,0.98
2023-03-26T23:09:25.380Z,0.80
2023-03-26T23:11:52.784Z,0.60
2023-03-26T23:14:19.969Z,1.98
2023-03-26T23:16:47.350Z,1.13
2023-03-26T23:19:14.891Z,2.67
2023-03-26T23:21:43.119Z,1.40
2023-03-26T23:24:10.571Z,4.25
2023-03-26T23:26:49.607Z,1.02
2023-03-26T23:29:18.476Z,2.80
2023-03-26T23:31:45.673Z,1.33
2023-03-26T23:34:13.636Z,2.72
2023-03-26T23:36:41.978Z,1.27
2023-03-26T23:39:11.006Z,2.03
2023-03-26T23:41:44.227Z,1.95
2023-03-26T23:44:14.666Z,2.42
2023-03-26T23:46:42.829Z,3.03
2023-03-26T23:49:10.710Z,2.92
2023-03-26T23:51:38.032Z,0.88
2023-03-26T23:54:05.347Z,1.77
2023-03-26T23:56:36.156Z,2.40
2023-03-26T23:59:03.701Z,1.42
